EWG3C EDDN-

Flight info

Callsign EWG3C
Flight time N/A
Altitude
Route
Aircraft A319

Departure

Time 2026-05-05 15:27
Airport Nuremberg Airport (EDDN)

Arrival

Time N/A
Airport -
Time Latitude Longitude Altitude Speed Heading
2026-05-05 15:20 49.49610 11.07941 1029 ft 0 kts 188°
2026-05-05 15:21 49.49603 11.07939 1029 ft 1 kts 188°
2026-05-05 15:21 49.49562 11.07996 1028 ft 13 kts 96°
2026-05-05 15:21 49.49549 11.08145 1026 ft 16 kts 98°
2026-05-05 15:22 49.49538 11.08321 1030 ft 16 kts 74°
2026-05-05 15:22 49.49610 11.08384 1033 ft 12 kts 47°
2026-05-05 15:22 49.49603 11.08549 1036 ft 19 kts 99°
2026-05-05 15:22 49.49582 11.08769 1037 ft 22 kts 98°
2026-05-05 15:23 49.49558 11.09010 1039 ft 18 kts 98°
2026-05-05 15:23 49.49541 11.09195 1043 ft 18 kts 97°
2026-05-05 15:23 49.49531 11.09341 1046 ft 9 kts 89°
2026-05-05 15:23 49.49561 11.09426 1048 ft 9 kts 52°
2026-05-05 15:24 49.49594 11.09494 1050 ft 2 kts 53°
2026-05-05 15:24 49.49595 11.09496 1050 ft 4 kts 53°
2026-05-05 15:25 49.49675 11.09572 1053 ft 15 kts 359°
2026-05-05 15:25 49.49707 11.09494 1052 ft 9 kts 277°
2026-05-05 15:25 49.49709 11.09469 1051 ft 0 kts 278°
2026-05-05 15:26 49.49710 11.09464 1051 ft 4 kts 278°
2026-05-05 15:26 49.49740 11.09136 1046 ft 64 kts 278°
2026-05-05 15:26 49.49839 11.08135 1032 ft 123 kts 278°
2026-05-05 15:27 49.49993 11.06566 1120 ft 168 kts 274°
2026-05-05 15:27 49.50161 11.04683 1562 ft 177 kts 271°
2026-05-05 15:27 49.49945 11.02866 2056 ft 168 kts 248°
2026-05-05 15:27 49.49109 11.01684 2042 ft 167 kts 202°
2026-05-05 15:28 49.47973 11.01894 2062 ft 168 kts 152°
2026-05-05 15:28 49.47479 11.03358 1970 ft 160 kts 90°
2026-05-05 15:28 49.47519 11.04474 1963 ft 155 kts 87°
2026-05-05 15:28 49.47602 11.06133 1911 ft 155 kts 84°
2026-05-05 15:29 49.47640 11.07793 1880 ft 153 kts 88°
2026-05-05 15:29 49.47575 11.09402 1866 ft 150 kts 100°
2026-05-05 15:29 49.47461 11.11010 1848 ft 151 kts 98°
2026-05-05 15:29 49.47342 11.12623 1890 ft 150 kts 97°
2026-05-05 15:30 49.47180 11.14744 1912 ft 151 kts 99°
2026-05-05 15:30 49.47120 11.15799 1929 ft 149 kts 95°
2026-05-05 15:30 49.47161 11.17405 2003 ft 150 kts 83°
2026-05-05 15:30 49.47629 11.18806 2121 ft 149 kts 39°
2026-05-05 15:31 49.48595 11.19063 2071 ft 144 kts 337°
2026-05-05 15:31 49.49170 11.17997 1870 ft 128 kts 272°
2026-05-05 15:31 49.49131 11.16670 1758 ft 122 kts 262°
2026-05-05 15:31 49.49127 11.15341 1695 ft 123 kts 272°
2026-05-05 15:32 49.49268 11.14084 1664 ft 115 kts 270°
2026-05-05 15:32 49.49378 11.12905 1550 ft 109 kts 269°
2026-05-05 15:32 49.49482 11.11779 1412 ft 103 kts 266°
2026-05-05 15:32 49.49589 11.10698 1263 ft 103 kts 269°
2026-05-05 15:33 49.49704 11.09550 1160 ft 113 kts 267°
2026-05-05 15:33 49.49812 11.08491 1039 ft 87 kts 268°
2026-05-05 15:33 49.49894 11.07482 1080 ft 119 kts 270°
2026-05-05 15:33 49.50025 11.06198 1392 ft 125 kts 271°
2026-05-05 15:34 49.50186 11.04866 1390 ft 133 kts 292°
2026-05-05 15:34 49.51014 11.04077 1389 ft 154 kts 346°
2026-05-05 15:34 49.51989 11.04813 1290 ft 176 kts 54°
2026-05-05 15:34 49.52109 11.06543 1362 ft 157 kts 115°
2026-05-05 15:35 49.51884 11.08150 1552 ft 158 kts 103°
2026-05-05 15:35 49.51765 11.09812 1609 ft 154 kts 102°
2026-05-05 15:35 49.51595 11.11422 1686 ft 149 kts 110°
2026-05-05 15:35 49.51351 11.12964 1767 ft 148 kts 111°
2026-05-05 15:36 49.51074 11.14485 1819 ft 147 kts 110°
2026-05-05 15:36 49.50744 11.15964 1854 ft 146 kts 119°
2026-05-05 15:36 49.49948 11.16633 1710 ft 128 kts 197°
2026-05-05 15:36 49.49470 11.15683 1595 ft 121 kts 260°
2026-05-05 15:37 49.49409 11.14443 1492 ft 112 kts 261°
2026-05-05 15:37 49.49401 11.13246 1390 ft 109 kts 259°
2026-05-05 15:37 49.49458 11.12085 1253 ft 109 kts 266°
2026-05-05 15:37 49.49569 11.10877 1163 ft 126 kts 270°
2026-05-05 15:38 49.49705 11.09548 1101 ft 120 kts 269°
2026-05-05 15:38 49.49820 11.08458 1040 ft 90 kts 266°
2026-05-05 15:38 49.49917 11.07285 1335 ft 127 kts 268°
2026-05-05 15:38 49.50044 11.05811 1482 ft 139 kts 269°
2026-05-05 15:39 49.49687 11.04567 1501 ft 124 kts 227°
2026-05-05 15:39 49.48869 11.04494 1386 ft 134 kts 166°
2026-05-05 15:39 49.48444 11.05872 1465 ft 159 kts 103°
2026-05-05 15:39 49.48483 11.07596 1536 ft 160 kts 94°
2026-05-05 15:40 49.48422 11.09279 1522 ft 158 kts 98°
2026-05-05 15:40 49.48284 11.10937 1565 ft 154 kts 107°
2026-05-05 15:40 49.48094 11.12537 1639 ft 155 kts 105°
2026-05-05 15:40 49.48148 11.14205 1629 ft 166 kts 66°
2026-05-05 15:41 49.49112 11.14975 1698 ft 154 kts 347°
2026-05-05 15:41 49.49732 11.14024 1485 ft 120 kts 260°
2026-05-05 15:41 49.49566 11.12793 1389 ft 116 kts 253°
2026-05-05 15:41 49.49547 11.11572 1248 ft 115 kts 267°
2026-05-05 15:42 49.49626 11.10332 1197 ft 119 kts 270°
2026-05-05 15:42 49.49752 11.09094 1065 ft 115 kts 269°
2026-05-05 15:42 49.49877 11.07891 1107 ft 111 kts 267°
2026-05-05 15:42 49.49948 11.06699 1283 ft 119 kts 278°
2026-05-05 15:43 49.50154 11.05432 1466 ft 130 kts 275°
2026-05-05 15:43 49.50583 11.04208 1451 ft 147 kts 322°
2026-05-05 15:43 49.51630 11.04328 1293 ft 175 kts 35°
2026-05-05 15:43 49.51959 11.05957 1235 ft 160 kts 115°
2026-05-05 15:44 49.51813 11.07638 1374 ft 161 kts 100°
2026-05-05 15:44 49.51771 11.09342 1552 ft 156 kts 97°
2026-05-05 15:44 49.51678 11.10987 1632 ft 152 kts 105°
2026-05-05 15:44 49.51478 11.12563 1738 ft 149 kts 108°
2026-05-05 15:45 49.51196 11.14100 1815 ft 147 kts 112°
2026-05-05 15:45 49.50876 11.15586 1893 ft 148 kts 114°
2026-05-05 15:45 49.50522 11.17068 1896 ft 148 kts 114°
2026-05-05 15:45 49.50120 11.18533 1870 ft 148 kts 117°
2026-05-05 15:46 49.49702 11.20007 1845 ft 152 kts 116°
2026-05-05 15:46 49.49296 11.21486 1880 ft 147 kts 116°
2026-05-05 15:46 49.49306 11.23062 1822 ft 157 kts 70°
2026-05-05 15:46 49.50131 11.24036 1734 ft 152 kts
2026-05-05 15:47 49.51031 11.23643 1712 ft 127 kts 302°
2026-05-05 15:47 49.51221 11.22862 1690 ft 114 kts 262°
2026-05-05 15:47 49.50459 11.21914 1645 ft 126 kts 184°
2026-05-05 15:47 49.49698 11.22729 1622 ft 148 kts 129°
2026-05-05 15:48 49.49199 11.24114 1498 ft 142 kts 150°
2026-05-05 15:48 49.48418 11.24049 1409 ft 114 kts 228°
2026-05-05 15:48 49.48456 11.22838 1350 ft 121 kts 278°
2026-05-05 15:48 49.48597 11.21583 1473 ft 121 kts 271°
2026-05-05 15:49 49.48779 11.20292 1408 ft 128 kts 278°
2026-05-05 15:49 49.48952 11.18965 1609 ft 122 kts 268°
2026-05-05 15:49 49.48992 11.17651 1580 ft 121 kts 266°
2026-05-05 15:49 49.49062 11.16388 1591 ft 119 kts 269°
2026-05-05 15:50 49.49148 11.15133 1621 ft 122 kts 270°
2026-05-05 15:50 49.49303 11.13664 1560 ft 141 kts 272°
2026-05-05 15:50 49.49435 11.12334 1449 ft 116 kts 270°
2026-05-05 15:50 49.49542 11.11126 1300 ft 110 kts 269°
2026-05-05 15:51 49.49662 11.09936 1136 ft 117 kts 268°
2026-05-05 15:51 49.49776 11.08754 1051 ft 98 kts 267°
2026-05-05 15:51 49.49885 11.07606 1356 ft 134 kts 271°
2026-05-05 15:51 49.50096 11.06088 1551 ft 145 kts 279°
2026-05-05 15:52 49.49890 11.04742 1560 ft 130 kts 227°
2026-05-05 15:52 49.49041 11.04496 1561 ft 138 kts 170°
2026-05-05 15:52 49.48477 11.05750 1631 ft 159 kts 104°
2026-05-05 15:52 49.48406 11.07422 1594 ft 157 kts 101°
2026-05-05 15:53 49.48387 11.09112 1532 ft 157 kts 95°
2026-05-05 15:53 49.48392 11.10780 1615 ft 156 kts 98°
2026-05-05 15:53 49.48295 11.12429 1636 ft 154 kts 103°
2026-05-05 15:53 49.48108 11.14040 1648 ft 150 kts 110°
2026-05-05 15:54 49.47860 11.15580 1713 ft 147 kts 109°
2026-05-05 15:54 49.47536 11.17076 1911 ft 147 kts 114°
2026-05-05 15:54 49.47219 11.18555 2063 ft 146 kts 109°
2026-05-05 15:54 49.46944 11.20039 2187 ft 145 kts 109°
2026-05-05 15:55 49.46656 11.21529 2317 ft 146 kts 109°
2026-05-05 15:55 49.46319 11.23011 2436 ft 148 kts 110°
2026-05-05 15:55 49.46007 11.24530 2580 ft 150 kts 111°
2026-05-05 15:55 49.45697 11.26077 2748 ft 152 kts 109°
2026-05-05 15:56 49.45410 11.27633 2930 ft 152 kts 108°
2026-05-05 15:56 49.45286 11.29242 3113 ft 153 kts 87°
2026-05-05 15:56 49.45620 11.30798 3199 ft 154 kts 57°
2026-05-05 15:56 49.46358 11.31951 3226 ft 150 kts 27°
2026-05-05 15:57 49.47323 11.32246 3301 ft 140 kts 342°
2026-05-05 15:57 49.47958 11.31321 3307 ft 132 kts 281°
2026-05-05 15:57 49.47993 11.29939 3222 ft 128 kts 266°
2026-05-05 15:57 49.47861 11.28618 3177 ft 124 kts 258°
2026-05-05 15:58 49.47809 11.27298 2976 ft 125 kts 278°
2026-05-05 15:58 49.47997 11.25998 2808 ft 124 kts 278°
2026-05-05 15:58 49.48178 11.24698 2980 ft 126 kts 278°
2026-05-05 15:58 49.48341 11.23360 3007 ft 128 kts 275°
2026-05-05 15:59 49.48469 11.21999 2776 ft 128 kts 276°
2026-05-05 15:59 49.48599 11.20645 2570 ft 127 kts 277°
2026-05-05 15:59 49.48731 11.19307 2390 ft 126 kts 277°
2026-05-05 15:59 49.48860 11.17999 2219 ft 126 kts 275°
2026-05-05 16:00 49.48993 11.16660 2039 ft 128 kts 276°
2026-05-05 16:00 49.49128 11.15298 1859 ft 129 kts 277°
2026-05-05 16:00 49.49263 11.13934 1669 ft 129 kts 276°
2026-05-05 16:00 49.49396 11.12592 1499 ft 125 kts 277°
2026-05-05 16:01 49.49540 11.11212 1333 ft 129 kts 276°
2026-05-05 16:01 49.49666 11.09921 1133 ft 114 kts 276°
2026-05-05 16:01 49.49758 11.08857 1041 ft 86 kts 276°
2026-05-05 16:01 49.49839 11.08097 1031 ft 54 kts 280°
2026-05-05 16:02 49.49872 11.07679 1025 ft 22 kts 248°
2026-05-05 16:02 49.49788 11.07679 1023 ft 7 kts 156°
2026-05-05 16:02 49.49741 11.07716 1026 ft 7 kts 152°
2026-05-05 16:02 49.49719 11.07733 1026 ft 6 kts 153°
2026-05-05 16:03 49.49672 11.07767 1023 ft 9 kts 161°
2026-05-05 16:03 49.49607 11.07764 1027 ft 10 kts 189°
2026-05-05 16:03 49.49577 11.07852 1027 ft 12 kts 99°
2026-05-05 16:03 49.49562 11.07995 1028 ft 14 kts 96°
2026-05-05 16:04 49.49536 11.08058 1025 ft 7 kts 188°
2026-05-05 16:04 49.49491 11.08045 1026 ft 1 kts 188°
2026-05-05 16:04 49.49489 11.08044 1026 ft 0 kts 190°